Gaiman, Argentina
Current Conditions -  °F | °C
As of 12:00 PM on Saturday 22 Nov 2014 (Local Time) from SAVC Reporting Station
Clear Clear  
Wind Chill: 22°   Ceiling: Unl
Heat Index: 22°   Visibility: 6mi
Dew Point:   Wind: 29mph
Humidity: 27%   Direction: 270°W
Pressure: 29.68"   Gusts: 40mph
Location:  43.28°S, 65.48°W
Report Text: SAVC 221500Z 27025G35KT CAVOK 22/02 Q1005
Loading
Personal Weather Stations






























Interactive Weather Map New forecast layout! Learn more

10-Day Weather Forecast

Advertisements
Track Severe Weather on mobile